Independence, CA (93526)

4:27 PM PDT on October 22, 2014 (GMT -0700)
Fort Independence | Change Station
CLOSE
Current Station
Personal Weather Station
Location: Independence, CA
Elevation: 3980 ft
Nearby Weather Stations

Elev 3980 ft 36.83 °N, 118.22 °W | Updated 4 seconds ago

Clear
Clear
77.4 °F
Feels Like 77 °F
N
10.4
Wind Variable Wind from ENE
Gusts 10.4 mph

Today
High -- | Low -- °F
--% Chance of Precip.
Yesterday
High -- | Low -- °F
Precip. -- in
7:07 AM 6:07 PM
Waning Crescent, 1% visible
Pressure 29.93 in
Visibility 10.0 miles
Clouds Clear
Heat Index 77 °F
Dew Point 26 °F
Humidity 15%
Rainfall 0.00 in
Snow Depth Not available.
UV 2 out of 12
Pollen 2.70 out of 12
Air Quality Not available.
Flu Activity Sporadic
METAR KBIH 222256Z AUTO 16015KT 10SM CLR 26/M06 A3002 RMK AO2 SLP134 T02611056

More Conditions Fewer Conditions

Pressure 29.93 in
Visibility 10.0 miles
Clouds Clear
Heat Index 77 °F
Dew Point 26 °F
Humidity 15%
Rainfall 0.00 in
Snow Depth Not available.
UV 2 out of 12
Pollen 2.70 out of 12
Air Quality Not available.
Flu Activity Sporadic
METAR KBIH 222256Z AUTO 16015KT 10SM CLR 26/M06 A3002 RMK AO2 SLP134 T02611056

More Conditions Fewer Conditions

10-Day Weather Forecast

Almanac

Astronomy

Oct. 22, 2014 Rise Set
Actual Time 7:07 AM PDT 6:07 PM PDT
Civil Twilight 6:40 AM PDT 6:33 PM PDT
Nautical Twilight 6:10 AM PDT 7:03 PM PDT
Astronomical Twilight 5:40 AM PDT 7:33 PM PDT
Moon 5:54 AM PDT 5:35 PM PDT
Length of Visible Light 11h 52m
Length of Day
11h 00m
Tomorrow will be 2m 12s shorter.
Waning Crescent, 1% of the Moon is Illuminated
Today
Waning Crescent
Oct 23
New
Oct 30
First Quarter
Nov 6
Full
Nov 14
Last Quarter

Today's Extremes

State Highs State Lows

Community

WunderPhotos

Upload Photos

1,764,078 photos uploaded!

WunderBlogs® & News

Nearby

Snow Depth

Station Depth Elevation
Summit Meadow 0 in 9122 ft
Monitor Pass 0 in 8350 ft
Rubicon #2 0 in 7500 ft
Adin Mountain 0 in 6200 ft

Earthquake Activity

City Distance Mag. Time & Date
Kettleman City, California 109 miles 2.5 9:08 AM PDT
2014-10-22
Warm Springs, Nevada 140 miles 3.0 1:08 PM PDT
2014-10-21
Mammoth Lakes, California 53 miles 3.0 11:10 PM PDT
2014-10-20
Minimum magnitude displayed is 2.5.

Coastal Water Temperatures

Place Temperature
No Stations Reporting

Nearby Weather Stations